createdAt,value
2022-11-19T00:00:57.312Z,-2.19
2022-11-19T00:03:03.145Z,-2.19
2022-11-19T00:05:09.266Z,-2.17
2022-11-19T00:07:15.789Z,-2.32
2022-11-19T00:09:21.783Z,-2.15
2022-11-19T00:11:44.144Z,-2.25
2022-11-19T00:13:53.456Z,-2.19
2022-11-19T00:16:05.704Z,-2.18
2022-11-19T00:18:11.721Z,-2.18
2022-11-19T00:20:20.509Z,-2.18
2022-11-19T00:22:26.258Z,-2.17
2022-11-19T00:24:32.157Z,-2.17
2022-11-19T00:26:40.144Z,-2.20
2022-11-19T00:28:46.668Z,-2.18
2022-11-19T00:30:52.418Z,-2.21
2022-11-19T00:33:02.455Z,-2.35
2022-11-19T00:35:09.850Z,-2.24
2022-11-19T00:37:15.570Z,-2.23
2022-11-19T00:39:22.470Z,-2.23
2022-11-19T00:41:28.294Z,-2.26
2022-11-19T00:43:47.267Z,-2.29
2022-11-19T00:45:54.035Z,-2.30
2022-11-19T00:48:02.247Z,-2.33
2022-11-19T00:50:09.441Z,-2.29
2022-11-19T00:52:16.144Z,-2.23
2022-11-19T00:54:21.825Z,-2.18
2022-11-19T00:56:30.486Z,-2.15
2022-11-19T00:58:37.469Z,-2.14
2022-11-19T01:03:48.134Z,-2.03
2022-11-19T01:05:54.926Z,-1.99
2022-11-19T01:08:01.140Z,-2.02
2022-11-19T01:10:07.846Z,-2.03
2022-11-19T01:12:14.451Z,-2.03
2022-11-19T01:14:20.260Z,-2.02
2022-11-19T01:16:36.642Z,-2.05
2022-11-19T01:18:49.407Z,-2.06
2022-11-19T01:20:55.230Z,-2.10
2022-11-19T01:23:01.156Z,-2.16
2022-11-19T01:25:13.254Z,-2.13
2022-11-19T01:27:19.008Z,-2.18
2022-11-19T01:29:24.772Z,-2.16
2022-11-19T01:31:33.833Z,-2.14
2022-11-19T01:33:40.570Z,-2.19
2022-11-19T01:36:01.729Z,-2.19
2022-11-19T01:38:09.331Z,-2.20
2022-11-19T01:40:20.540Z,-2.24
2022-11-19T01:42:44.830Z,-2.25
2022-11-19T01:45:06.293Z,-2.24
2022-11-19T01:47:12.399Z,-2.27
2022-11-19T01:49:23.271Z,-2.26
2022-11-19T01:51:40.836Z,-2.20
2022-11-19T01:53:56.505Z,-2.19
2022-11-19T01:56:17.748Z,-2.22
2022-11-19T01:58:28.606Z,-2.31
2022-11-19T02:00:34.529Z,-2.29
2022-11-19T02:02:40.619Z,-2.30
